Time;durP1;ratioP1;P1;durP2;ratioP2;P2;SDS_P1;SDS_P2;PMS_P1;PMS_P2;Temp;Humidity;BMP_temperature;BMP_pressure;BME280_temperature;BME280_humidity;BME280_pressure;Samples;Min_cycle;Max_cycle;Signal;HPM_P1;HPM_P2
2023/06/02 00:01:06;;;;;;;;;9.67;6.67;;;;;;;;6403955;22;45341;-68
2023/06/02 00:03:33;;;;;;;;;11.00;8.33;;;;;;;;6404346;22;45061;-68
2023/06/02 00:06:03;;;;;;;;;8.00;7.00;;;;;;;;6404074;22;45104;-68
2023/06/02 00:08:29;;;;;;;;;9.67;8.33;;;;;;;;6375412;22;45461;-68
2023/06/02 00:10:54;;;;;;;;;10.33;9.00;;;;;;;;6374790;22;46913;-68
2023/06/02 00:13:20;;;;;;;;;10.00;9.00;;;;;;;;6404238;22;45292;-68
2023/06/02 00:15:45;;;;;;;;;10.67;10.67;;;;;;;;6403850;22;45178;-68
2023/06/02 00:18:10;;;;;;;;;9.67;7.33;;;;;;;;6404366;22;45514;-68
2023/06/02 00:20:36;;;;;;;;;10.50;10.50;;;;;;;;6403146;22;46406;-68
2023/06/02 00:23:02;;;;;;;;;10.33;8.33;;;;;;;;6404088;22;45249;-68
2023/06/02 00:25:27;;;;;;;;;12.00;9.00;;;;;;;;6404206;22;45601;-68
2023/06/02 00:27:52;;;;;;;;;11.33;9.67;;;;;;;;6374491;22;45374;-68
2023/06/02 00:30:18;;;;;;;;;13.33;11.67;;;;;;;;6404077;22;45356;-68
2023/06/02 00:32:43;;;;;;;;;10.67;9.00;;;;;;;;6404158;22;45159;-68
2023/06/02 00:35:08;;;;;;;;;11.00;10.00;;;;;;;;6404573;22;45161;-68
2023/06/02 00:37:33;;;;;;;;;9.33;9.33;;;;;;;;6375272;22;45482;-68
2023/06/02 00:39:59;;;;;;;;;13.00;11.00;;;;;;;;6404319;22;46614;-68
2023/06/02 00:42:24;;;;;;;;;14.67;12.00;;;;;;;;6374198;22;45243;-68
2023/06/02 00:44:49;;;;;;;;;18.50;14.75;;;;;;;;6404092;22;45203;-68
2023/06/02 00:47:14;;;;;;;;;14.00;14.00;;;;;;;;6403715;22;45359;-68
2023/06/02 00:49:41;;;;;;;;;16.25;12.00;;;;;;;;6374523;22;48014;-68
2023/06/02 00:52:06;;;;;;;;;17.25;14.25;;;;;;;;6403869;22;45401;-68
2023/06/02 00:54:32;;;;;;;;;15.50;13.50;;;;;;;;6404242;22;45367;-68
2023/06/02 00:56:57;;;;;;;;;17.25;13.50;;;;;;;;6402805;22;45375;-68
2023/06/02 00:59:22;;;;;;;;;13.25;13.25;;;;;;;;6374979;22;48257;-68
2023/06/02 01:01:48;;;;;;;;;13.50;13.50;;;;;;;;6403738;22;45240;-68
2023/06/02 01:04:14;;;;;;;;;19.00;18.00;;;;;;;;6404134;22;45373;-68
2023/06/02 01:06:40;;;;;;;;;16.25;16.25;;;;;;;;6403497;22;45362;-68
2023/06/02 01:09:07;;;;;;;;;18.50;16.75;;;;;;;;6403885;22;45377;-68
2023/06/02 01:11:33;;;;;;;;;20.75;16.50;;;;;;;;6402852;22;45237;-68
2023/06/02 01:13:59;;;;;;;;;21.00;16.50;;;;;;;;6374703;22;45159;-68
2023/06/02 01:16:26;;;;;;;;;20.50;15.00;;;;;;;;6403734;22;45252;-68
2023/06/02 01:18:52;;;;;;;;;22.75;18.75;;;;;;;;6373820;22;46918;-68
2023/06/02 01:21:23;;;;;;;;;19.50;17.25;;;;;;;;6403219;22;45375;-68
2023/06/02 01:23:51;;;;;;;;;18.25;15.50;;;;;;;;6403823;22;45313;-68
2023/06/02 01:26:16;;;;;;;;;20.00;18.75;;;;;;;;6402876;22;45284;-68
2023/06/02 01:28:42;;;;;;;;;19.25;17.00;;;;;;;;6374272;22;45312;-68
2023/06/02 01:31:17;;;;;;;;;23.00;20.50;;;;;;;;6374566;22;45374;-68
2023/06/02 01:33:49;;;;;;;;;22.25;18.75;;;;;;;;6373986;22;45227;-68
2023/06/02 01:36:16;;;;;;;;;19.00;16.00;;;;;;;;6403547;22;45216;-68
2023/06/02 01:38:42;;;;;;;;;21.50;19.50;;;;;;;;6403428;22;46139;-68
2023/06/02 01:41:08;;;;;;;;;21.75;19.75;;;;;;;;6403582;22;45405;-68
2023/06/02 01:43:34;;;;;;;;;22.00;18.50;;;;;;;;6403966;22;45378;-68
2023/06/02 01:46:00;;;;;;;;;20.25;16.75;;;;;;;;6403463;22;45372;-68
2023/06/02 01:48:27;;;;;;;;;23.25;19.25;;;;;;;;6374498;22;45308;-68
2023/06/02 01:50:52;;;;;;;;;18.50;17.75;;;;;;;;6403198;22;45210;-68
2023/06/02 01:53:19;;;;;;;;;20.25;19.25;;;;;;;;6403779;22;45440;-68
2023/06/02 01:55:44;;;;;;;;;18.00;15.25;;;;;;;;6403289;22;45242;-68
2023/06/02 01:58:10;;;;;;;;;20.00;18.00;;;;;;;;6374021;22;48085;-68
2023/06/02 02:00:35;;;;;;;;;21.50;21.00;;;;;;;;6401744;22;45313;-68
2023/06/02 02:03:00;;;;;;;;;22.00;17.75;;;;;;;;6403565;22;45155;-68
2023/06/02 02:05:25;;;;;;;;;15.75;15.00;;;;;;;;6403446;22;45235;-68
2023/06/02 02:07:51;;;;;;;;;23.00;19.00;;;;;;;;6403537;22;45571;-68
2023/06/02 02:10:16;;;;;;;;;20.50;20.50;;;;;;;;6403839;22;45298;-68
2023/06/02 02:12:42;;;;;;;;;22.25;21.00;;;;;;;;6374340;22;45289;-68
2023/06/02 02:15:07;;;;;;;;;18.75;18.00;;;;;;;;6403581;22;45211;-68
2023/06/02 02:17:33;;;;;;;;;19.75;19.75;;;;;;;;6373829;22;45407;-68
2023/06/02 02:19:59;;;;;;;;;21.50;19.50;;;;;;;;6373766;22;45651;-68
2023/06/02 02:22:24;;;;;;;;;22.50;19.50;;;;;;;;6403951;22;45531;-68
2023/06/02 02:24:50;;;;;;;;;18.75;18.25;;;;;;;;6375716;22;45947;-67
2023/06/02 02:27:15;;;;;;;;;17.00;17.00;;;;;;;;6404320;22;46282;-67
2023/06/02 02:29:41;;;;;;;;;16.50;15.25;;;;;;;;6404971;22;45325;-67
2023/06/02 02:32:06;;;;;;;;;27.25;23.50;;;;;;;;6404735;22;45182;-68
2023/06/02 02:34:32;;;;;;;;;23.00;20.75;;;;;;;;6405071;22;45573;-68
2023/06/02 02:37:01;;;;;;;;;19.50;19.00;;;;;;;;6404181;22;45415;-68
2023/06/02 02:39:26;;;;;;;;;18.50;18.25;;;;;;;;6375570;22;45906;-68
2023/06/02 02:41:51;;;;;;;;;22.75;20.25;;;;;;;;6404349;22;45676;-68
2023/06/02 02:44:17;;;;;;;;;25.75;20.75;;;;;;;;6404815;22;45276;-68
2023/06/02 02:46:42;;;;;;;;;20.25;19.75;;;;;;;;6404247;22;45441;-67
2023/06/02 02:49:08;;;;;;;;;19.25;19.25;;;;;;;;6404782;22;45246;-68
2023/06/02 02:51:33;;;;;;;;;20.00;19.00;;;;;;;;6404348;22;45198;-68
2023/06/02 02:53:58;;;;;;;;;23.25;19.25;;;;;;;;6375413;22;46031;-68
2023/06/02 02:56:24;;;;;;;;;20.00;20.00;;;;;;;;6404405;22;45265;-68
2023/06/02 02:58:49;;;;;;;;;23.25;20.75;;;;;;;;6375350;22;45385;-68
2023/06/02 03:01:15;;;;;;;;;26.00;24.50;;;;;;;;6404563;22;45374;-68
2023/06/02 03:03:41;;;;;;;;;24.00;22.25;;;;;;;;6404796;22;45223;-69
2023/06/02 03:06:06;;;;;;;;;23.50;22.00;;;;;;;;6404159;22;45260;-68
2023/06/02 03:08:32;;;;;;;;;28.25;21.00;;;;;;;;6404391;22;45245;-68
2023/06/02 03:10:58;;;;;;;;;22.50;20.50;;;;;;;;6404168;22;45319;-68
2023/06/02 03:13:23;;;;;;;;;26.25;22.25;;;;;;;;6404514;22;45154;-68
2023/06/02 03:15:48;;;;;;;;;20.75;19.75;;;;;;;;6404235;22;45484;-68
2023/06/02 03:18:13;;;;;;;;;20.50;18.25;;;;;;;;6375004;22;45584;-68
2023/06/02 03:20:38;;;;;;;;;22.25;19.00;;;;;;;;6404266;22;45430;-68
2023/06/02 03:23:04;;;;;;;;;21.00;20.75;;;;;;;;6375261;22;46593;-68
2023/06/02 03:25:30;;;;;;;;;20.75;18.00;;;;;;;;6404256;22;46139;-68
2023/06/02 03:27:55;;;;;;;;;22.00;20.75;;;;;;;;6404400;22;45159;-68
2023/06/02 03:30:21;;;;;;;;;19.75;19.50;;;;;;;;6404446;22;45138;-68
2023/06/02 03:32:46;;;;;;;;;22.75;18.00;;;;;;;;6403533;22;45259;-68
2023/06/02 03:35:11;;;;;;;;;26.50;24.50;;;;;;;;6404428;22;46544;-68
2023/06/02 03:37:37;;;;;;;;;28.25;21.50;;;;;;;;6404001;22;45241;-68
2023/06/02 03:40:04;;;;;;;;;24.25;23.00;;;;;;;;6404681;22;45351;-68
2023/06/02 03:42:29;;;;;;;;;29.75;25.75;;;;;;;;6403855;22;45415;-68
2023/06/02 03:44:55;;;;;;;;;27.75;25.25;;;;;;;;6375233;22;47829;-68
2023/06/02 03:47:20;;;;;;;;;23.75;23.00;;;;;;;;6404294;22;45328;-68
2023/06/02 03:49:45;;;;;;;;;28.25;24.25;;;;;;;;6404332;22;45145;-68
2023/06/02 03:52:10;;;;;;;;;23.00;22.25;;;;;;;;6404277;22;45178;-67
2023/06/02 03:54:36;;;;;;;;;25.00;23.00;;;;;;;;6404332;22;45312;-67
2023/06/02 03:57:01;;;;;;;;;23.75;20.75;;;;;;;;6403163;22;45296;-67
2023/06/02 03:59:26;;;;;;;;;27.50;23.75;;;;;;;;6403048;22;45225;-67
2023/06/02 04:01:51;;;;;;;;;26.00;24.00;;;;;;;;6404001;22;45197;-67
2023/06/02 04:04:16;;;;;;;;;27.75;22.25;;;;;;;;6403972;22;45690;-67
2023/06/02 04:06:41;;;;;;;;;27.75;23.75;;;;;;;;6404240;22;45140;-68
2023/06/02 04:09:10;;;;;;;;;32.50;29.50;;;;;;;;6404348;22;45517;-67
2023/06/02 04:11:35;;;;;;;;;33.50;27.00;;;;;;;;6403150;22;45219;-67
2023/06/02 04:14:01;;;;;;;;;23.75;22.00;;;;;;;;6374834;22;45648;-67
2023/06/02 04:16:27;;;;;;;;;25.25;22.50;;;;;;;;6404072;22;45324;-68
2023/06/02 04:18:53;;;;;;;;;26.75;24.50;;;;;;;;6403899;22;45289;-67
2023/06/02 04:21:18;;;;;;;;;31.25;23.75;;;;;;;;6374814;22;45849;-68
2023/06/02 04:23:43;;;;;;;;;24.75;22.00;;;;;;;;6374193;22;47539;-67
2023/06/02 04:26:08;;;;;;;;;27.25;24.50;;;;;;;;6404183;22;45270;-67
2023/06/02 04:28:33;;;;;;;;;32.00;23.75;;;;;;;;6404374;22;45527;-67
2023/06/02 04:30:59;;;;;;;;;27.00;24.00;;;;;;;;6404061;22;45353;-68
2023/06/02 04:33:25;;;;;;;;;23.25;22.00;;;;;;;;6375627;22;46277;-67
2023/06/02 04:35:50;;;;;;;;;25.00;16.75;;;;;;;;6404104;22;45290;-67
2023/06/02 04:38:16;;;;;;;;;26.00;20.50;;;;;;;;6375608;22;45267;-67
2023/06/02 04:40:42;;;;;;;;;31.50;24.75;;;;;;;;6374865;22;45897;-67
2023/06/02 04:43:07;;;;;;;;;35.75;31.50;;;;;;;;6374881;22;45682;-67
2023/06/02 04:45:33;;;;;;;;;33.50;27.50;;;;;;;;6403349;22;45375;-67
2023/06/02 04:47:58;;;;;;;;;25.50;25.00;;;;;;;;6375312;22;45270;-67
2023/06/02 04:50:24;;;;;;;;;29.50;27.25;;;;;;;;6404422;22;45210;-67
2023/06/02 04:52:49;;;;;;;;;31.50;27.50;;;;;;;;6403958;22;46282;-67
2023/06/02 04:55:14;;;;;;;;;34.00;29.25;;;;;;;;6404637;22;44614;-67
2023/06/02 04:57:40;;;;;;;;;22.50;21.00;;;;;;;;6403764;22;45198;-68
2023/06/02 05:00:06;;;;;;;;;33.75;32.00;;;;;;;;6404517;22;45314;-67
2023/06/02 05:02:32;;;;;;;;;38.50;31.00;;;;;;;;6404149;22;45592;-68
2023/06/02 05:04:57;;;;;;;;;37.25;31.50;;;;;;;;6375266;22;45717;-69
2023/06/02 05:07:22;;;;;;;;;36.25;32.50;;;;;;;;6374829;22;45239;-67
2023/06/02 05:09:48;;;;;;;;;34.00;30.75;;;;;;;;6404010;22;45439;-67
2023/06/02 05:12:15;;;;;;;;;32.25;26.75;;;;;;;;6374053;22;46878;-67
2023/06/02 05:14:41;;;;;;;;;39.75;33.50;;;;;;;;6374838;22;45208;-68
2023/06/02 05:17:07;;;;;;;;;36.25;31.50;;;;;;;;6374029;22;45243;-67
2023/06/02 05:19:33;;;;;;;;;24.75;22.25;;;;;;;;6374400;22;45546;-67
2023/06/02 05:21:58;;;;;;;;;34.25;31.75;;;;;;;;6374728;22;47443;-67
2023/06/02 05:24:23;;;;;;;;;43.75;34.00;;;;;;;;6403792;22;45179;-67
2023/06/02 05:26:49;;;;;;;;;35.50;29.50;;;;;;;;6403818;22;44801;-67
2023/06/02 05:29:14;;;;;;;;;33.25;27.75;;;;;;;;6404088;22;45203;-67
2023/06/02 05:31:39;;;;;;;;;36.75;31.00;;;;;;;;6403560;22;45684;-67
2023/06/02 05:34:04;;;;;;;;;35.50;33.50;;;;;;;;6404196;22;45150;-67
2023/06/02 05:36:30;;;;;;;;;29.50;24.25;;;;;;;;6404048;22;45134;-67
2023/06/02 05:38:55;;;;;;;;;43.75;34.50;;;;;;;;6371500;22;46653;-67
2023/06/02 05:41:20;;;;;;;;;39.25;33.00;;;;;;;;6400027;22;45309;-67
2023/06/02 05:43:46;;;;;;;;;38.75;34.25;;;;;;;;6373977;22;45293;-67
2023/06/02 05:46:11;;;;;;;;;42.00;35.25;;;;;;;;6372870;22;45311;-67
2023/06/02 05:48:37;;;;;;;;;42.00;35.00;;;;;;;;6402516;22;45156;-67
2023/06/02 05:51:03;;;;;;;;;36.00;32.00;;;;;;;;6401322;22;46788;-67
2023/06/02 05:53:28;;;;;;;;;36.75;31.75;;;;;;;;6373079;22;45269;-67
2023/06/02 05:55:53;;;;;;;;;39.25;34.25;;;;;;;;6402575;22;45546;-67
2023/06/02 05:58:19;;;;;;;;;40.25;35.00;;;;;;;;6403813;22;45258;-67
2023/06/02 06:00:44;;;;;;;;;39.00;31.75;;;;;;;;6403503;22;46168;-67
2023/06/02 06:03:09;;;;;;;;;39.75;32.50;;;;;;;;6403331;22;45590;-67
2023/06/02 06:05:34;;;;;;;;;36.50;30.25;;;;;;;;6404050;22;45222;-67
2023/06/02 06:08:00;;;;;;;;;42.75;33.00;;;;;;;;6404885;22;45273;-67
2023/06/02 06:10:25;;;;;;;;;43.00;35.00;;;;;;;;6375817;22;46909;-67
2023/06/02 06:12:50;;;;;;;;;38.75;32.75;;;;;;;;6375837;22;46053;-69
2023/06/02 06:15:16;;;;;;;;;38.50;33.75;;;;;;;;6404932;22;45300;-72
2023/06/02 06:17:51;;;;;;;;;35.00;31.50;;;;;;;;6375719;22;46005;-71
2023/06/02 06:20:16;;;;;;;;;42.25;36.00;;;;;;;;6404339;22;46365;-71
2023/06/02 06:22:42;;;;;;;;;40.75;33.75;;;;;;;;6404677;22;45177;-71
2023/06/02 06:25:08;;;;;;;;;44.50;39.00;;;;;;;;6405298;22;45356;-72
2023/06/02 06:27:33;;;;;;;;;38.25;34.75;;;;;;;;6404409;22;45464;-71
2023/06/02 06:29:58;;;;;;;;;38.25;35.00;;;;;;;;6375178;22;47478;-72
2023/06/02 06:32:23;;;;;;;;;37.00;31.50;;;;;;;;6404462;22;45092;-72
2023/06/02 06:34:48;;;;;;;;;40.50;34.25;;;;;;;;6405521;22;45535;-69
2023/06/02 06:37:14;;;;;;;;;43.75;35.75;;;;;;;;6404881;22;45446;-71
2023/06/02 06:39:39;;;;;;;;;34.25;32.75;;;;;;;;6404605;22;45162;-71
2023/06/02 06:42:04;;;;;;;;;37.00;32.50;;;;;;;;6375710;22;45502;-71
2023/06/02 06:44:29;;;;;;;;;43.50;35.00;;;;;;;;6405173;22;45247;-72
2023/06/02 06:46:55;;;;;;;;;46.00;36.50;;;;;;;;6404719;22;45324;-71
2023/06/02 06:49:20;;;;;;;;;42.25;36.00;;;;;;;;6404879;22;45173;-70
2023/06/02 06:51:46;;;;;;;;;42.75;33.75;;;;;;;;6375457;22;45285;-71
2023/06/02 06:54:11;;;;;;;;;38.25;35.25;;;;;;;;6376102;22;45188;-71
2023/06/02 06:56:38;;;;;;;;;40.50;33.75;;;;;;;;6404233;22;44772;-71
2023/06/02 06:59:03;;;;;;;;;41.00;33.00;;;;;;;;6375556;22;45588;-70
2023/06/02 07:01:28;;;;;;;;;37.75;32.50;;;;;;;;6374924;22;45379;-69
2023/06/02 07:03:54;;;;;;;;;33.75;30.25;;;;;;;;6404875;22;45390;-70
2023/06/02 07:06:19;;;;;;;;;38.75;32.50;;;;;;;;6403104;22;45372;-70
2023/06/02 07:08:44;;;;;;;;;32.50;29.00;;;;;;;;6375365;22;47080;-70
2023/06/02 07:11:09;;;;;;;;;43.25;34.25;;;;;;;;6404185;22;45277;-70
2023/06/02 07:13:35;;;;;;;;;43.25;33.75;;;;;;;;6404760;22;45400;-70
2023/06/02 07:16:00;;;;;;;;;36.00;31.75;;;;;;;;6375320;22;46075;-70
2023/06/02 07:18:26;;;;;;;;;34.50;31.75;;;;;;;;6403658;22;45237;-71
2023/06/02 07:20:51;;;;;;;;;44.50;35.25;;;;;;;;6402919;22;45265;-71
2023/06/02 07:23:16;;;;;;;;;38.25;34.50;;;;;;;;6404114;22;45479;-72
2023/06/02 07:25:42;;;;;;;;;38.25;32.75;;;;;;;;6403652;22;45205;-70
2023/06/02 07:28:07;;;;;;;;;41.00;33.00;;;;;;;;6374810;22;46912;-71
2023/06/02 07:30:32;;;;;;;;;37.75;33.25;;;;;;;;6374715;22;45332;-70
2023/06/02 07:32:58;;;;;;;;;28.00;27.50;;;;;;;;6404870;22;45089;-70
2023/06/02 07:35:23;;;;;;;;;39.75;28.50;;;;;;;;6376053;22;47264;-70
2023/06/02 07:37:52;;;;;;;;;33.00;29.00;;;;;;;;6403598;22;45186;-69
2023/06/02 07:40:18;;;;;;;;;37.25;31.25;;;;;;;;6404844;22;45257;-70
2023/06/02 07:42:43;;;;;;;;;26.25;24.25;;;;;;;;6403708;22;45270;-70
2023/06/02 07:45:08;;;;;;;;;33.50;30.00;;;;;;;;6404751;22;45565;-66
2023/06/02 07:47:33;;;;;;;;;29.25;25.25;;;;;;;;6374885;22;46183;-66
2023/06/02 07:49:59;;;;;;;;;21.50;20.75;;;;;;;;6375648;22;45318;-66
2023/06/02 07:52:24;;;;;;;;;26.25;24.25;;;;;;;;6404323;22;45403;-66
2023/06/02 07:54:49;;;;;;;;;23.00;21.67;;;;;;;;6375148;22;45953;-66
2023/06/02 07:57:14;;;;;;;;;25.33;21.67;;;;;;;;6403776;22;45292;-66
2023/06/02 07:59:40;;;;;;;;;28.67;28.00;;;;;;;;6404808;22;45282;-66
2023/06/02 08:02:05;;;;;;;;;25.00;24.00;;;;;;;;6375516;22;45355;-66
2023/06/02 08:04:30;;;;;;;;;27.00;24.33;;;;;;;;6404557;22;45365;-69
2023/06/02 08:06:56;;;;;;;;;28.00;24.33;;;;;;;;6404141;22;45432;-66
2023/06/02 08:09:22;;;;;;;;;32.00;29.00;;;;;;;;6404413;22;45364;-66
2023/06/02 08:11:48;;;;;;;;;32.67;29.33;;;;;;;;6404453;22;45238;-66
2023/06/02 08:14:14;;;;;;;;;35.33;28.67;;;;;;;;6404343;22;45253;-66
2023/06/02 08:16:41;;;;;;;;;28.00;26.67;;;;;;;;6403993;22;45269;-67
2023/06/02 08:19:06;;;;;;;;;27.67;26.00;;;;;;;;6402002;22;45356;-68
2023/06/02 08:21:31;;;;;;;;;24.00;23.33;;;;;;;;6402864;22;45454;-68
2023/06/02 08:23:57;;;;;;;;;25.67;24.33;;;;;;;;6404105;22;45331;-67
2023/06/02 08:26:22;;;;;;;;;26.33;25.33;;;;;;;;6403651;22;45290;-68
2023/06/02 08:28:49;;;;;;;;;24.00;21.67;;;;;;;;6404254;22;45215;-68
2023/06/02 08:31:16;;;;;;;;;20.67;17.67;;;;;;;;6403987;22;45280;-68
2023/06/02 08:33:42;;;;;;;;;26.33;24.00;;;;;;;;6403928;22;45239;-69
2023/06/02 08:36:08;;;;;;;;;30.00;27.00;;;;;;;;6403303;22;46080;-68
2023/06/02 08:38:33;;;;;;;;;26.00;24.33;;;;;;;;6403934;22;45214;-70
2023/06/02 08:40:58;;;;;;;;;29.33;27.67;;;;;;;;6404294;22;45139;-69
2023/06/02 08:43:24;;;;;;;;;28.33;23.00;;;;;;;;6404006;22;45159;-68
2023/06/02 08:45:49;;;;;;;;;25.00;25.00;;;;;;;;6404023;22;46156;-69
2023/06/02 08:48:15;;;;;;;;;23.67;22.67;;;;;;;;6375678;22;45286;-69
2023/06/02 08:50:42;;;;;;;;;31.33;23.67;;;;;;;;6402535;22;45170;-68
2023/06/02 08:53:10;;;;;;;;;29.00;28.33;;;;;;;;6403611;22;45273;-69
2023/06/02 08:55:39;;;;;;;;;31.67;29.00;;;;;;;;6374102;22;46445;-68
2023/06/02 08:58:04;;;;;;;;;29.67;28.00;;;;;;;;6403887;22;45395;-69
2023/06/02 09:00:29;;;;;;;;;26.67;26.67;;;;;;;;6375354;22;45225;-69
2023/06/02 09:02:55;;;;;;;;;25.33;24.33;;;;;;;;6403618;22;45443;-69
2023/06/02 09:05:20;;;;;;;;;27.33;25.33;;;;;;;;6374638;22;47052;-69
2023/06/02 09:07:46;;;;;;;;;29.67;24.33;;;;;;;;6403679;22;45250;-69
2023/06/02 09:10:27;;;;;;;;;27.67;27.67;;;;;;;;6404362;22;45188;-69
2023/06/02 09:12:52;;;;;;;;;28.67;24.00;;;;;;;;6373330;22;46093;-68
2023/06/02 09:15:17;;;;;;;;;26.33;23.67;;;;;;;;6374773;22;46204;-68
2023/06/02 09:17:42;;;;;;;;;31.00;26.00;;;;;;;;6403297;22;45123;-69
2023/06/02 09:20:11;;;;;;;;;19.67;16.33;;;;;;;;6404322;22;45342;-68
2023/06/02 09:22:52;;;;;;;;;23.67;22.00;;;;;;;;6374093;22;45709;-69
2023/06/02 09:25:21;;;;;;;;;21.00;19.00;;;;;;;;6374550;22;47182;-68
2023/06/02 09:27:50;;;;;;;;;32.67;26.67;;;;;;;;6403280;22;45228;-68
2023/06/02 09:30:15;;;;;;;;;26.33;23.33;;;;;;;;6403874;22;45251;-68
2023/06/02 09:32:50;;;;;;;;;23.33;21.33;;;;;;;;6403140;22;45159;-69
2023/06/02 09:35:31;;;;;;;;;22.67;21.33;;;;;;;;6403638;22;45277;-69
2023/06/02 09:37:57;;;;;;;;;24.33;20.33;;;;;;;;6403326;22;45153;-68
2023/06/02 09:40:26;;;;;;;;;22.33;22.33;;;;;;;;6404606;22;45167;-68
2023/06/02 09:42:51;;;;;;;;;23.33;22.00;;;;;;;;6374810;22;46106;-69
2023/06/02 09:45:16;;;;;;;;;20.33;20.33;;;;;;;;6404118;22;45342;-69
2023/06/02 09:47:41;;;;;;;;;22.67;20.33;;;;;;;;6403811;22;45296;-69
2023/06/02 09:50:07;;;;;;;;;21.33;17.67;;;;;;;;6374851;22;45296;-69
2023/06/02 09:52:32;;;;;;;;;21.33;19.33;;;;;;;;6403718;22;45282;-68
2023/06/02 09:54:58;;;;;;;;;23.00;22.00;;;;;;;;6403333;22;45418;-69
2023/06/02 09:57:24;;;;;;;;;22.33;20.67;;;;;;;;6403331;22;45244;-69
2023/06/02 09:59:49;;;;;;;;;24.33;21.33;;;;;;;;6403480;22;45239;-69
2023/06/02 10:02:15;;;;;;;;;23.67;22.33;;;;;;;;6403497;22;45394;-69
2023/06/02 10:04:40;;;;;;;;;25.33;24.67;;;;;;;;6403887;22;45281;-69
2023/06/02 10:07:24;;;;;;;;;20.67;20.00;;;;;;;;6374751;22;45938;-69
2023/06/02 10:10:05;;;;;;;;;23.67;21.00;;;;;;;;6374204;22;45231;-70
2023/06/02 10:12:30;;;;;;;;;24.00;22.00;;;;;;;;6403272;22;45447;-69
2023/06/02 10:15:08;;;;;;;;;24.67;22.33;;;;;;;;6403691;22;46412;-68
2023/06/02 10:17:51;;;;;;;;;24.33;22.00;;;;;;;;6403524;22;45229;-69
2023/06/02 10:20:26;;;;;;;;;24.00;23.67;;;;;;;;6374314;22;45207;-69
2023/06/02 10:22:55;;;;;;;;;23.00;20.00;;;;;;;;6374555;22;46081;-69
2023/06/02 10:25:23;;;;;;;;;24.33;20.67;;;;;;;;6403235;22;45520;-70
2023/06/02 10:27:49;;;;;;;;;23.00;19.00;;;;;;;;6403034;22;45345;-69
2023/06/02 10:30:21;;;;;;;;;27.33;21.00;;;;;;;;6403767;22;45280;-69
2023/06/02 10:32:47;;;;;;;;;31.33;25.67;;;;;;;;6402842;22;45369;-69
2023/06/02 10:35:13;;;;;;;;;20.67;20.00;;;;;;;;6403314;22;45265;-69
2023/06/02 10:37:39;;;;;;;;;27.33;26.00;;;;;;;;6403194;22;45344;-70
2023/06/02 10:40:05;;;;;;;;;25.00;23.33;;;;;;;;6403601;22;45265;-69
2023/06/02 10:42:31;;;;;;;;;20.67;20.67;;;;;;;;6403251;22;45313;-70
2023/06/02 10:45:27;;;;;;;;;26.33;22.33;;;;;;;;6375205;22;46817;-69
2023/06/02 10:47:52;;;;;;;;;18.00;18.00;;;;;;;;6390814;22;45284;-69
2023/06/02 10:50:24;;;;;;;;;20.67;20.67;;;;;;;;6405282;22;45430;-69
2023/06/02 10:52:59;;;;;;;;;24.75;21.00;;;;;;;;6375760;22;45961;-69
2023/06/02 10:55:28;;;;;;;;;22.25;22.00;;;;;;;;6376251;22;47081;-69
2023/06/02 10:57:58;;;;;;;;;19.00;16.50;;;;;;;;6375136;22;45200;-69
2023/06/02 11:00:32;;;;;;;;;21.75;17.00;;;;;;;;6405174;22;45250;-68
2023/06/02 11:02:57;;;;;;;;;20.75;17.00;;;;;;;;6375906;22;46423;-69
2023/06/02 11:05:23;;;;;;;;;17.00;16.67;;;;;;;;6405109;22;45896;-69
2023/06/02 11:08:07;;;;;;;;;18.75;18.25;;;;;;;;6405772;22;45261;-70
2023/06/02 11:10:42;;;;;;;;;18.25;14.75;;;;;;;;6405736;22;45324;-69
2023/06/02 11:13:07;;;;;;;;;18.75;16.25;;;;;;;;6376993;22;46434;-69
2023/06/02 11:15:33;;;;;;;;;19.00;16.75;;;;;;;;6401835;22;45344;-69
2023/06/02 11:18:00;;;;;;;;;24.00;18.33;;;;;;;;6375088;22;45298;-69
2023/06/02 11:20:36;;;;;;;;;22.75;20.25;;;;;;;;6404723;22;45202;-69
2023/06/02 11:23:05;;;;;;;;;17.00;16.00;;;;;;;;6374690;22;45937;-68
2023/06/02 11:25:30;;;;;;;;;17.00;16.00;;;;;;;;6404530;22;46202;-68
2023/06/02 11:27:55;;;;;;;;;18.50;16.75;;;;;;;;6403383;22;45214;-69
2023/06/02 11:30:20;;;;;;;;;17.75;17.75;;;;;;;;6404555;22;45172;-68
2023/06/02 11:32:48;;;;;;;;;18.67;17.67;;;;;;;;6404073;22;45297;-68
2023/06/02 11:35:14;;;;;;;;;19.75;19.50;;;;;;;;6404341;22;46393;-69
2023/06/02 11:37:40;;;;;;;;;13.00;13.00;;;;;;;;6404099;22;45314;-70
2023/06/02 11:40:07;;;;;;;;;14.50;14.50;;;;;;;;6375568;22;45275;-68
2023/06/02 11:42:36;;;;;;;;;20.75;19.25;;;;;;;;6375057;22;46016;-70
2023/06/02 11:45:01;;;;;;;;;15.25;13.75;;;;;;;;6375262;22;47074;-69
2023/06/02 11:47:26;;;;;;;;;19.50;18.50;;;;;;;;6404129;22;45240;-70
2023/06/02 11:49:51;;;;;;;;;17.00;15.00;;;;;;;;6375766;22;45173;-68
2023/06/02 11:52:17;;;;;;;;;17.50;14.75;;;;;;;;6404350;22;45217;-69
2023/06/02 11:54:52;;;;;;;;;16.00;15.00;;;;;;;;6404214;22;46334;-68
2023/06/02 11:57:30;;;;;;;;;18.75;17.25;;;;;;;;6374755;22;45239;-69
2023/06/02 12:00:06;;;;;;;;;15.00;13.25;;;;;;;;6404356;22;45299;-68
2023/06/02 12:02:31;;;;;;;;;13.75;13.00;;;;;;;;6403056;22;45411;-68
2023/06/02 12:04:56;;;;;;;;;16.50;14.50;;;;;;;;6404676;22;46313;-69
2023/06/02 12:07:26;;;;;;;;;14.50;12.75;;;;;;;;6403996;22;45650;-68
2023/06/02 12:09:51;;;;;;;;;9.25;7.50;;;;;;;;6404876;22;45361;-69
2023/06/02 12:12:17;;;;;;;;;15.25;15.25;;;;;;;;6403637;22;45564;-69
2023/06/02 12:14:42;;;;;;;;;23.00;16.25;;;;;;;;6403987;22;46218;-69
2023/06/02 12:17:07;;;;;;;;;11.50;10.75;;;;;;;;6404245;22;45108;-69
2023/06/02 12:19:33;;;;;;;;;13.75;11.75;;;;;;;;6404494;22;45413;-69
2023/06/02 12:22:05;;;;;;;;;18.00;15.00;;;;;;;;6403846;22;45250;-69
2023/06/02 12:24:34;;;;;;;;;16.00;14.25;;;;;;;;6404374;22;45245;-69
2023/06/02 12:26:59;;;;;;;;;16.25;15.00;;;;;;;;6403818;22;45225;-69
2023/06/02 12:29:25;;;;;;;;;13.50;13.00;;;;;;;;6404497;22;45293;-68
2023/06/02 12:31:57;;;;;;;;;17.50;15.50;;;;;;;;6403774;22;45459;-70
2023/06/02 12:34:22;;;;;;;;;13.50;12.50;;;;;;;;6404236;22;45679;-70
2023/06/02 12:36:47;;;;;;;;;11.25;11.00;;;;;;;;6404356;22;45606;-70
2023/06/02 12:39:12;;;;;;;;;14.50;13.25;;;;;;;;6404669;22;45240;-69
2023/06/02 12:41:38;;;;;;;;;14.50;14.50;;;;;;;;6402840;22;45356;-69
2023/06/02 12:44:03;;;;;;;;;14.50;14.50;;;;;;;;6399763;22;46675;-69
2023/06/02 12:46:29;;;;;;;;;9.25;9.25;;;;;;;;6373757;22;45273;-69
2023/06/02 12:48:54;;;;;;;;;14.50;13.50;;;;;;;;6403318;22;45300;-69
2023/06/02 12:51:20;;;;;;;;;12.50;11.25;;;;;;;;6402767;22;45222;-69
2023/06/02 12:53:45;;;;;;;;;18.00;17.00;;;;;;;;6404022;22;45318;-69
2023/06/02 12:56:11;;;;;;;;;16.25;14.00;;;;;;;;6403700;22;45761;-69
2023/06/02 12:58:36;;;;;;;;;10.25;10.25;;;;;;;;6404095;22;45285;-69
2023/06/02 13:01:02;;;;;;;;;15.00;14.00;;;;;;;;6401931;22;45349;-69
2023/06/02 13:03:27;;;;;;;;;18.25;13.50;;;;;;;;6402213;22;45277;-69
2023/06/02 13:06:00;;;;;;;;;15.75;13.75;;;;;;;;6402437;22;45338;-69
2023/06/02 13:08:26;;;;;;;;;13.75;13.00;;;;;;;;6403503;22;45356;-70
2023/06/02 13:10:51;;;;;;;;;15.75;15.00;;;;;;;;6403309;22;45234;-69
2023/06/02 13:13:16;;;;;;;;;18.00;15.25;;;;;;;;6401989;22;45401;-70
2023/06/02 13:15:42;;;;;;;;;16.75;15.25;;;;;;;;6402754;22;45257;-69
2023/06/02 13:18:07;;;;;;;;;14.00;12.75;;;;;;;;6404377;22;45452;-69
2023/06/02 13:20:32;;;;;;;;;12.75;12.75;;;;;;;;6403753;22;45226;-69
2023/06/02 13:22:58;;;;;;;;;15.75;13.00;;;;;;;;6403891;22;46437;-68
2023/06/02 13:25:23;;;;;;;;;16.50;15.25;;;;;;;;6403825;22;45174;-69
2023/06/02 13:27:48;;;;;;;;;15.00;13.25;;;;;;;;6403876;22;45278;-69
2023/06/02 13:30:15;;;;;;;;;13.50;12.25;;;;;;;;6403794;22;45227;-70
2023/06/02 13:32:40;;;;;;;;;16.50;14.50;;;;;;;;6403751;22;46235;-69
2023/06/02 13:35:06;;;;;;;;;14.25;13.00;;;;;;;;6404148;22;45204;-70
2023/06/02 13:37:31;;;;;;;;;15.00;12.75;;;;;;;;6403581;22;45217;-71
2023/06/02 13:39:56;;;;;;;;;15.25;13.25;;;;;;;;6403757;22;45168;-69
2023/06/02 13:42:21;;;;;;;;;15.50;12.25;;;;;;;;6403688;22;45590;-72
2023/06/02 13:44:46;;;;;;;;;14.50;13.75;;;;;;;;6374534;22;45238;-70
2023/06/02 13:47:12;;;;;;;;;15.50;13.00;;;;;;;;6404315;22;45296;-70
2023/06/02 13:49:37;;;;;;;;;17.50;15.25;;;;;;;;6403702;22;45213;-71
2023/06/02 13:52:02;;;;;;;;;11.75;8.00;;;;;;;;6403633;22;45167;-70
2023/06/02 13:54:27;;;;;;;;;10.75;10.75;;;;;;;;6404218;22;45201;-70
2023/06/02 13:56:52;;;;;;;;;10.50;10.00;;;;;;;;6403425;22;45184;-70
2023/06/02 13:59:18;;;;;;;;;17.50;14.25;;;;;;;;6404175;22;45088;-70
2023/06/02 14:01:44;;;;;;;;;12.50;12.50;;;;;;;;6403566;22;45466;-69
2023/06/02 14:04:09;;;;;;;;;14.00;12.50;;;;;;;;6403249;22;45264;-69
2023/06/02 14:06:36;;;;;;;;;18.75;12.50;;;;;;;;6403529;22;45353;-69
2023/06/02 14:09:04;;;;;;;;;12.00;11.25;;;;;;;;6403482;22;45264;-69
2023/06/02 14:11:30;;;;;;;;;15.00;14.00;;;;;;;;6401760;22;45755;-69
2023/06/02 14:13:55;;;;;;;;;13.00;9.00;;;;;;;;6404035;22;45216;-70